Home > Products > Valid Products > TAF

000
FTUS43 KDLH 302300
TAFHYR
TAF
KHYR 302320Z 3100/3124 24006KT P6SM VCTS SCT040CB BKN070
     FM310200 29006KT P6SM SCT070
     FM310800 VRB02KT 6SM BR SCT005
      TEMPO 3109/3113 1/2SM FG VV003
     FM311400 32006KT P6SM SCT050=



000
FTUS43 KDLH 302300
TAFBRD
TAF
KBRD 302320Z 3100/3124 33008KT P6SM SCT060
     FM310200 VRB03KT P6SM FEW070
     FM311700 32007KT P6SM SCT050=



000
FTUS43 KDLH 302300
TAFINL
TAF
KINL 302320Z 3100/3124 31011G16KT P6SM SCT060
     FM310200 32003KT P6SM FEW050
     FM311700 33007KT P6SM SCT050=



000
FTUS43 KDLH 302300
TAFDLH
TAF
KDLH 302320Z 3100/3124 31012G18KT P6SM SCT050 BKN100
     FM310100 30008KT P6SM SCT100=



000
FTUS43 KDLH 302200 AAB
TAFDLH
TAF AMD
KDLH 302225Z 3022/3118 31012G18KT P6SM SCT050 BKN100
     FM310100 29005KT P6SM SCT080
     FM311600 31010KT P6SM SCT045=



000
FTUS43 KDLH 302200 AAA
TAFHYR
TAF AMD
KHYR 302220Z 3022/3118 25006KT P6SM VCTS SCT040CB BKN070
      TEMPO 3022/3024 5SM TSRA BKN035CB
     FM310200 00000KT P6SM SCT070
     FM310700 00000KT 3SM BR SCT005
      TEMPO 3109/3113 1/2SM FG VV003
     FM311500 31004KT P6SM SCT050=



000
FTUS43 KDLH 302000 AAA
TAFDLH
TAF AMD
KDLH 302037Z 3021/3118 31013G18KT P6SM SCT060 BKN100
      TEMPO 3022/3024 5SM TSRA BKN025CB
     FM310100 29005KT P6SM SCT080
     FM311600 31010KT P6SM SCT045=



000
FTUS43 KDLH 301800 AAA
TAFDLH
TAF AMD
KDLH 301828Z 3018/3118 29012G16KT P6SM SCT060
      TEMPO 3018/3020 6SM TSRA BKN030CB
     FM302000 30013G18KT P6SM VCSH BKN060
      TEMPO 3020/3023 5SM TSRA BKN025CB
     FM310100 29005KT P6SM SCT080
     FM311600 31010KT P6SM SCT045=



000
FTUS43 KDLH 301700
TAFINL
TAF
KINL 301735Z 3018/3118 31012G16KT P6SM SCT060
     FM301900 31012G17KT P6SM BKN070
      TEMPO 3019/3022 -SHRA BKN040
     FM310200 00000KT P6SM FEW050
     FM311500 32007KT P6SM SCT050=



000
FTUS43 KDLH 301700
TAFHYR
TAF
KHYR 301735Z 3018/3118 22008KT P6SM SCT060
     FM302000 26009KT P6SM VCSH SCT040 BKN070
      TEMPO 3020/3024 5SM TSRA BKN035CB
     FM310200 00000KT P6SM SCT070
     FM310700 00000KT 3SM BR SCT005
      TEMPO 3109/3113 1/2SM FG VV003
     FM311500 31004KT P6SM SCT050=



000
FTUS43 KDLH 301700
TAFBRD
TAF
KBRD 301735Z 3018/3118 32010KT P6SM SCT060
      TEMPO 3019/3023 BKN070
     FM310100 VRB03KT P6SM FEW070
      TEMPO 3108/3112 5SM BR SCT005
     FM311600 31008KT P6SM FEW050=



000
FTUS43 KDLH 301700
TAFDLH
TAF
KDLH 301735Z 3018/3118 28011KT P6SM SCT060
     FM301900 29012KT P6SM VCSH SCT060
      TEMPO 3019/3023 6SM TSRA BKN040CB
     FM310100 29005KT P6SM SCT080
     FM311600 31010KT P6SM SCT045=



000
FTUS43 KDLH 301700 AAA
TAFINL
TAF AMD
KINL 301701Z 3017/3112 31012G16KT P6SM SCT050
      TEMPO 3019/3022 BKN050
     FM310200 00000KT P6SM FEW050=



000
FTUS43 KDLH 301500 AAA
TAFDLH
TAF AMD
KDLH 301535Z 3016/3112 25007KT P6SM SCT060
     FM302000 28011KT P6SM VCTS SCT040CB BKN070
     FM310100 31005KT P6SM SCT080=



000
FTUS43 KDLH 301400 AAB
TAFHYR
TAF AMD
KHYR 301449Z 3015/3112 22003KT P6SM BKN003
     FM301530 28004KT P6SM FEW010
     FM302000 30009KT P6SM VCTS SCT040CB BKN070
     FM310200 00000KT P6SM SCT090
      TEMPO 3107/3110 3SM BR=



000
FTUS43 KDLH 301300 AAA
TAFHYR
TAF AMD
KHYR 301333Z 3014/3112 00000KT 1/4SM FG VV002
     FM301430 30003KT 1SM BR BKN003
     FM301500 30005KT P6SM FEW010
     FM302000 30009KT P6SM VCTS SCT040CB BKN070
     FM310200 00000KT P6SM SCT090
      TEMPO 3107/3110 3SM BR=



000
FTUS43 KDLH 301100
TAFBRD
TAF
KBRD 301138Z 3012/3112 00000KT P6SM SKC
     FM301600 33007KT P6SM SCT040
     FM310100 32003KT P6SM SCT090=



000
FTUS43 KDLH 301100
TAFDLH
TAF
KDLH 301138Z 3012/3112 00000KT P6SM SCT100
     FM301400 30007KT P6SM SCT050
     FM302000 31011KT P6SM VCTS SCT040CB BKN070
     FM310100 31005KT P6SM SCT080=



000
FTUS43 KDLH 301100
TAFINL
TAF
KINL 301138Z 3012/3112 00000KT P6SM SKC
     FM301500 30005KT P6SM SKC
     FM301900 32010KT P6SM SCT050
     FM310400 00000KT P6SM SKC=



000
FTUS43 KDLH 301100
TAFHYR
TAF
KHYR 301138Z 3012/3112 00000KT 1SM BR SKC
      TEMPO 3012/3014 1/4SM FG
     FM301400 30005KT P6SM SCT050
     FM302000 30009KT P6SM VCTS SCT040CB BKN070
     FM310200 00000KT P6SM SCT090
      TEMPO 3107/3110 3SM BR=



000
FTUS43 KDLH 300900 AAA
TAFINL
TAF AMD
KINL 300928Z 3009/3106 00000KT P6SM SKC
      TEMPO 3010/3013 3SM BR
     FM301300 30005KT P6SM SKC
     FM302000 32010KT P6SM SCT050
     FM310100 31008KT P6SM SCT070=



000
FTUS43 KDLH 300500
TAFDLH
TAF
KDLH 300532Z 3006/3106 30006KT P6SM SCT080 BKN100
      TEMPO 3007/3010 3SM BR SCT100
     FM301000 29003KT 3SM BR SCT100
      TEMPO 3010/3012 1/2SM FG SCT002
     FM301300 30007KT P6SM SCT050
     FM302000 31011KT P6SM VCTS SCT040CB BKN070
     FM310100 32008KT P6SM SCT080=



000
FTUS43 KDLH 300500
TAFHYR
TAF
KHYR 300532Z 3006/3106 VRB03KT 1SM BR SKC
      TEMPO 3006/3010 1/4SM FG
     FM301000 VRB02KT 2SM BR SCT050
      TEMPO 3010/3013 1/2SM FG SCT002
     FM301300 30008KT P6SM SCT050
     FM302000 30009KT P6SM VCTS SCT040CB BKN070
     FM310200 31005KT P6SM SCT090=



000
FTUS43 KDLH 300500
TAFINL
TAF
KINL 300532Z 3006/3106 VRB03KT P6SM SCT100
      TEMPO 3006/3010 5SM BR
     FM301000 27003KT 5SM BR SCT080
      TEMPO 3010/3012 1SM BR
     FM301300 30005KT P6SM SKC
     FM302000 32010KT P6SM SCT050
     FM310100 31008KT P6SM SCT070=



000
FTUS43 KDLH 300500
TAFBRD
TAF
KBRD 300532Z 3006/3106 VRB03KT P6SM SKC
     FM301400 33007KT P6SM SCT040
     FM302000 32010KT P6SM SCT050
     FM310100 32005KT P6SM SCT090=



000
FTUS43 KDLH 300400 AAA
TAFHYR
TAF AMD
KHYR 300419Z 3004/3024 31004KT 5SM BR SCT060
      TEMPO 3004/3008 1SM BR
     FM300800 VRB02KT 2SM BR SCT050
      TEMPO 3008/3012 1/2SM FG SCT002
     FM301300 30008KT P6SM SCT050
     FM301900 30009KT P6SM VCTS SCT040CB BKN070=



000
FTUS43 KDLH 300100 AAA
TAFDLH
TAF AMD
KDLH 300148Z 3002/3024 28007KT P6SM VCTS SCT050CB BKN070
     FM300300 33005KT P6SM SCT080
     FM301100 30006KT 5SM BR SCT080
     FM301500 32007KT P6SM SCT050
     FM301900 31011KT P6SM VCTS SCT040CB BKN070=



000
FTUS43 KDLH 300000 AAA
TAFDLH
TAF AMD
KDLH 300022Z 3000/3024 28009KT P6SM VCTS SCT050CB BKN070
      TEMPO 3000/3002 VRB18G28KT 1SM -TSRA BR BKN035CB
     FM300300 33005KT P6SM SCT080
     FM301100 30006KT 5SM BR SCT080
     FM301500 32007KT P6SM SCT050
     FM301900 31011KT P6SM VCTS SCT040CB BKN070=



000
FTUS43 KDLH 292300
TAFBRD
TAF
KBRD 292320Z 3000/3024 31010KT P6SM SCT050
     FM301400 33009KT P6SM SCT060
     FM302100 32010KT P6SM SCT050=



000
FTUS43 KDLH 292300
TAFDLH
TAF
KDLH 292320Z 3000/3024 28009KT P6SM VCTS SCT050CB BKN070
      TEMPO 3001/3002 3SM -TSRA BR BKN040CB
     FM300300 33005KT P6SM SCT080
     FM301100 30006KT 5SM BR SCT080
     FM301500 32007KT P6SM SCT050
     FM301900 31011KT P6SM VCTS SCT040CB BKN070=



000
FTUS43 KDLH 292300
TAFINL
TAF
KINL 292320Z 3000/3024 28008KT P6SM VCTS SCT050CB BKN080
      TEMPO 3000/3001 3SM -TSRA BR BKN040CB
     FM300200 31004KT P6SM SCT060
     FM301100 27003KT 5SM BR SCT080
     FM301600 32008KT P6SM SCT050
     FM302000 33010KT P6SM SCT040=



000
FTUS43 KDLH 292300
TAFHYR
TAF
KHYR 292320Z 3000/3024 32008KT P6SM SCT035 BKN060
      TEMPO 3000/3002 VRB20G30KT 3SM TSRA BR BKN035CB
     FM300300 31004KT P6SM SCT060
     FM301000 VRB02KT 5SM BR SCT060
     FM301500 30008KT P6SM SCT050
     FM301900 30009KT P6SM VCTS SCT040CB BKN070=



000
FTUS43 KDLH 292200 AAC
TAFINL
TAF AMD
KINL 292242Z 2923/3018 32010KT P6SM VCSH SCT050 BKN100
      TEMPO 2923/2924 VRB15G25KT 6SM TSRA BKN050CB
     FM300000 33005KT P6SM SCT060
     FM301500 33010KT P6SM SCT060=



000
FTUS43 KDLH 292200 AAB
TAFHYR
TAF AMD
KHYR 292241Z 2923/3018 31008KT P6SM VCTS SCT040CB BKN060
      TEMPO 2923/2924 VRB20G30KT 1SM TSRA BR BKN040CB
     FM300300 VRB02KT P6SM SCT060
     FM301600 29009KT P6SM BKN060=



000
FTUS43 KDLH 292100 AAB
TAFDLH
TAF AMD
KDLH 292141Z 2922/3018 30012G19KT P6SM VCSH SCT060 BKN100
      TEMPO 2922/2924 VRB16G30KT 6SM -TSRA BKN060CB
     FM300100 33005KT P6SM SCT060
     FM301500 32010KT P6SM SCT080=



000
FTUS43 KDLH 292100 AAA
TAFDLH
TAF AMD
KDLH 292102Z 2921/3018 30012G19KT P6SM VCSH SCT060 BKN100
      TEMPO 2922/2924 6SM -TSRA BKN060CB
     FM300100 33005KT P6SM SCT060
     FM301500 32010KT P6SM SCT080=



000
FTUS43 KDLH 292000 AAB
TAFINL
TAF AMD
KINL 292054Z 2921/3018 32010KT P6SM VCSH SCT050 BKN100
      TEMPO 2921/2922 VRB15G25KT 6SM TSRA BKN050CB
     FM300000 33005KT P6SM SCT060
     FM301500 33010KT P6SM SCT060=



000
FTUS43 KDLH 291900 AAA
TAFINL
TAF AMD
KINL 291900Z 2919/3018 32012KT P6SM VCSH SCT050 BKN100
     FM300000 33005KT P6SM SCT060
     FM301500 33010KT P6SM SCT060=



000
FTUS43 KDLH 291800 AAA
TAFHYR
TAF AMD
KHYR 291827Z 2918/3018 31008KT P6SM VCTS SCT040CB BKN060
     FM300300 VRB02KT P6SM SCT060
     FM301600 29009KT P6SM BKN060=



000
FTUS43 KDLH 291700
TAFINL
TAF
KINL 291732Z 2918/3018 31012KT P6SM VCSH SCT050 BKN100
     FM300000 33005KT P6SM SCT060
     FM301500 33010KT P6SM SCT060=



000
FTUS43 KDLH 291700
TAFBRD
TAF
KBRD 291732Z 2918/3018 31012KT P6SM SCT035 BKN060
     FM300000 33005KT P6SM SCT060
     FM301500 33010KT P6SM SCT060=



000
FTUS43 KDLH 291700
TAFHYR
TAF
KHYR 291732Z 2918/3018 30006KT P6SM SCT060 BKN100
     FM292100 31008KT P6SM VCSH SCT040 BKN060
     FM300300 VRB02KT P6SM SCT060
     FM301600 29009KT P6SM BKN060=



000
FTUS43 KDLH 291700
TAFDLH
TAF
KDLH 291732Z 2918/3018 32011KT P6SM VCSH SCT060 BKN100
     FM300100 33005KT P6SM SCT060
     FM301500 32010KT P6SM SCT080=



000
FTUS43 KDLH 291600 AAB
TAFDLH
TAF AMD
KDLH 291619Z 2916/3012 32012KT P6SM VCSH SCT100
      TEMPO 2916/2917 -RA BKN050
     FM292000 32014KT P6SM VCSH BKN060
     FM300100 33005KT P6SM VCSH SCT060=



000
FTUS43 KDLH 291500 AAA
TAFDLH
TAF AMD
KDLH 291516Z 2915/3012 31011KT P6SM SCT100
     FM292000 32014KT P6SM VCSH BKN060
     FM300100 33005KT P6SM VCSH SCT060=



000
FTUS43 KDLH 291200 AAA
TAFDLH
TAF AMD
KDLH 291228Z 2912/3012 30008KT P6SM VCSH FEW100
     FM291600 31011KT P6SM SCT050
     FM292000 32011KT P6SM VCSH BKN050
     FM300100 34005KT P6SM SCT050=



000
FTUS43 KDLH 291100
TAFBRD
TAF
KBRD 291120Z 2912/3012 33005KT P6SM SKC
     FM291600 32010KT P6SM SCT060
     FM300100 33005KT P6SM FEW060=



000
FTUS43 KDLH 291100
TAFINL
TAF
KINL 291120Z 2912/3012 29003KT P6SM SCT080 BKN100
     FM291600 32011KT P6SM SCT060
     FM300100 32005KT P6SM FEW060=



000
FTUS43 KDLH 291100
TAFDLH
TAF
KDLH 291120Z 2912/3012 29005KT P6SM FEW100
     FM291600 31011KT P6SM SCT050
     FM292000 32011KT P6SM VCSH BKN050
     FM300100 34005KT P6SM SCT050=



000
FTUS43 KDLH 291100
TAFHYR
TAF
KHYR 291120Z 2912/3012 VRB02KT P6SM FEW002 BKN100
     FM292100 31008KT P6SM VCSH BKN050
     FM300200 VRB02KT P6SM FEW050
     FM300900 00000KT 2SM BR SCT002=



000
FTUS43 KDLH 291000 AAA
TAFHYR
TAF AMD
KHYR 291010Z 2910/3006 00000KT 4SM BR FEW001 FEW100
      TEMPO 2910/2912 3/4SM BR SCT001
     FM291300 VRB02KT P6SM FEW100
     FM291800 32008KT P6SM VCSH BKN050
     FM292100 34007KT P6SM VCTS BKN050CB
     FM300200 01003KT P6SM SCT050=



000
FTUS43 KDLH 290500
TAFHYR
TAF
KHYR 290520Z 2906/3006 00000KT P6SM SCT080
     FM291800 32008KT P6SM VCSH BKN050
     FM292100 34007KT P6SM VCTS BKN050CB
     FM300200 01003KT P6SM SCT050=



000
FTUS43 KDLH 290500
TAFINL
TAF
KINL 290520Z 2906/3006 00000KT P6SM SCT100
     FM291500 32009KT P6SM SCT050
     FM291900 32012G18KT P6SM VCSH BKN050
     FM300200 32005KT P6SM SCT050=



000
FTUS43 KDLH 290500
TAFDLH
TAF
KDLH 290520Z 2906/3006 31007KT P6SM VCSH SCT080
     FM291500 31012KT P6SM SCT050
     FM291800 31013G19KT P6SM VCSH BKN050
     FM300200 34007KT P6SM SCT050=



000
FTUS43 KDLH 290500
TAFBRD
TAF
KBRD 290520Z 2906/3006 33005KT P6SM SCT100
     FM291500 32006KT P6SM SCT045
     FM291800 32011G18KT P6SM SCT050
     FM300100 34005KT P6SM SCT050=



000
FTUS43 KDLH 282300
TAFHYR
TAF
KHYR 282335Z 2900/2924 VRB05KT P6SM SCT060
     FM292100 32008KT P6SM VCSH BKN050=



000
FTUS43 KDLH 282300
TAFDLH
TAF
KDLH 282335Z 2900/2924 31010KT P6SM SCT050
     FM291500 31012KT P6SM SCT050
     FM292100 31013G19KT P6SM VCSH BKN050=



000
FTUS43 KDLH 282300
TAFBRD
TAF
KBRD 282335Z 2900/2924 36008KT P6SM SCT050
     FM290200 VRB04KT P6SM SKC
     FM291500 32006KT P6SM SCT045
     FM291800 32011G18KT P6SM SCT050=



000
FTUS43 KDLH 282300
TAFINL
TAF
KINL 282335Z 2900/2924 32008KT P6SM VCSH SCT100
     FM290300 32007KT P6SM SCT050
     FM291500 32009KT P6SM SCT050
     FM292100 32012G18KT P6SM VCSH BKN050=



000
FTUS43 KDLH 281900 AAB
TAFHYR
TAF AMD
KHYR 281957Z 2820/2918 34009KT P6SM SCT070
     FM282100 33008KT P6SM VCSH BKN060
     FM282300 VRB04KT P6SM SCT060=



000
FTUS43 KDLH 281800 AAA
TAFHYR
TAF AMD
KHYR 281808Z 2818/2918 34006G19KT P6SM FEW040 BKN060
     FM282100 33008KT P6SM VCSH BKN060
     FM282300 VRB04KT P6SM SCT060=



000
FTUS43 KDLH 281800 AAA
TAFBRD
TAF AMD
KBRD 281807Z 2818/2918 01011G18KT P6SM SCT045 BKN060
     FM290200 VRB04KT P6SM SKC
     FM291500 32006KT P6SM SCT045=



000
FTUS43 KDLH 281700
TAFBRD
TAF
KBRD 281720Z 2818/2918 01006KT P6SM SCT045 BKN060
     FM290200 VRB04KT P6SM SKC
     FM291500 32006KT P6SM SCT045=



000
FTUS43 KDLH 281700
TAFHYR
TAF
KHYR 281720Z 2818/2918 34006KT P6SM FEW040 BKN060
     FM282100 33008KT P6SM VCSH BKN060
     FM282300 VRB04KT P6SM SCT060=



000
FTUS43 KDLH 281700
TAFINL
TAF
KINL 281720Z 2818/2918 31008KT P6SM VCSH SCT110
     FM282200 32007KT P6SM SCT110
     FM291500 32009KT P6SM SCT050=



000
FTUS43 KDLH 281700
TAFDLH
TAF
KDLH 281720Z 2818/2918 33011G18KT P6SM FEW040 BKN050
     FM282100 32010KT P6SM VCSH BKN050
     FM290200 32007KT P6SM SCT050
     FM291500 31010KT P6SM SCT050=



000
FTUS43 KDLH 281600 AAD
TAFHYR
TAF AMD
KHYR 281601Z 2816/2912 34006KT P6SM BKN070
     FM282200 33008KT P6SM VCSH BKN060=



000
FTUS43 KDLH 281500 AAC
TAFHYR
TAF AMD
KHYR 281502Z 2815/2912 VRB04KT P6SM SKC
     FM282200 33008KT P6SM VCSH BKN060=



000
FTUS43 KDLH 281300 AAB
TAFHYR
TAF AMD
KHYR 281328Z 2813/2912 00000KT P6SM SCT002 OVC070
     FM281500 33009G16KT P6SM SCT060
     FM282200 33008KT P6SM VCSH BKN060=



000
FTUS43 KDLH 281300 AAA
TAFHYR
TAF AMD
KHYR 281301Z 2813/2912 21003KT P6SM BKN002 OVC070
     FM281500 33009G16KT P6SM SCT060
     FM282200 33008KT P6SM VCSH BKN060=



000
FTUS43 KDLH 281100
TAFBRD
TAF
KBRD 281120Z 2812/2912 33006KT P6SM OVC060
     FM281500 33009KT P6SM SCT060=



000
FTUS43 KDLH 281100
TAFINL
TAF
KINL 281120Z 2812/2912 00000KT P6SM FEW060
     FM281600 33008KT P6SM SCT060
     FM290100 31004KT P6SM SCT060=



000
FTUS43 KDLH 281100
TAFHYR
TAF
KHYR 281120Z 2812/2912 00000KT 1/4SM FG VV002
      TEMPO 2812/2813 4SM BR SCT002 OVC060
     FM281300 VRB02KT P6SM OVC060
     FM281700 33009G16KT P6SM SCT060
     FM282200 33008KT P6SM VCSH BKN060=



000
FTUS43 KDLH 281100
TAFDLH
TAF
KDLH 281120Z 2812/2912 33005KT P6SM OVC060
     FM281500 33010KT P6SM SCT060
     FM282100 33010KT P6SM VCSH BKN050
     FM290200 32006KT P6SM SCT050=



000
FTUS43 KDLH 280900 AAA
TAFDLH
TAF AMD
KDLH 280951Z 2810/2906 33005KT P6SM OVC060
     FM281500 33010KT P6SM SCT060
     FM282100 33010KT P6SM VCSH BKN050
     FM290200 32006KT P6SM SCT050=



000
FTUS43 KDLH 280800 AAA
TAFHYR
TAF AMD
KHYR 280812Z 2808/2906 00000KT 1/4SM FG VV002
      TEMPO 2810/2812 2SM BR SCT002
     FM281200 VRB02KT P6SM FEW002
      TEMPO 2812/2813 4SM BR SCT002
     FM281600 34009KT P6SM SCT040
     FM282100 34010KT P6SM VCSH BKN040
     FM290200 34005KT P6SM SCT100=



000
FTUS43 KDLH 280500
TAFBRD
TAF
KBRD 280520Z 2806/2906 36007KT P6SM BKN050
     FM281500 35010KT P6SM SCT050
     FM282300 35009KT P6SM SCT050 SCT100=



000
FTUS43 KDLH 280500
TAFHYR
TAF
KHYR 280520Z 2806/2906 00000KT P6SM SCT050
      TEMPO 2809/2813 1 1/2SM BR
     FM281600 34009KT P6SM SCT040
     FM282100 34010KT P6SM VCSH BKN040
     FM290200 34005KT P6SM SCT100=



000
FTUS43 KDLH 280500
TAFINL
TAF
KINL 280520Z 2806/2906 00000KT P6SM SCT060
     FM281800 34010KT P6SM VCSH BKN050
     FM290000 32004KT P6SM SCT100=



000
FTUS43 KDLH 280500
TAFDLH
TAF
KDLH 280520Z 2806/2906 32004KT P6SM SCT050
     FM281400 34010KT P6SM SKC
     FM282000 34011KT P6SM VCSH BKN050
     FM290200 33005KT P6SM SCT100=



000
FTUS43 KDLH 272300
TAFBRD
TAF
KBRD 272338Z 2800/2824 03011KT P6SM FEW035 BKN050
     FM280700 33005KT P6SM FEW040
     FM281500 35007KT P6SM SCT050
     FM282300 35009KT P6SM VCSH BKN050=



000
FTUS43 KDLH 272300
TAFHYR
TAF
KHYR 272338Z 2800/2824 03010G18KT P6SM SCT050
     FM280200 35007KT P6SM BKN050
     FM280800 00000KT 5SM BR SKC
      TEMPO 2809/2813 1 1/2SM BR
     FM281600 34009KT P6SM SCT040
     FM282100 34010KT P6SM VCSH BKN040=



000
FTUS43 KDLH 272300
TAFINL
TAF
KINL 272338Z 2800/2824 35010KT P6SM SCT040
     FM280200 33004KT P6SM SKC
     FM281500 34009KT P6SM VCSH SCT035 BKN050
     FM281800 34010KT P6SM VCSH BKN050=



000
FTUS43 KDLH 272300
TAFDLH
TAF
KDLH 272338Z 2800/2824 34006KT P6SM SCT007 BKN040
     FM280800 VRB04KT P6SM FEW050
     FM281400 34010KT P6SM SKC
     FM281900 34011KT P6SM VCSH BKN050=



    US Dept of Commerce
    National Oceanic and Atmospheric Administration
    National Weather Service
    1325 East West Highway
    Silver Spring, MD 20910
    Page Author: NWS Internet Services Team
Disclaimer
Information Quality
Credits
Glossary
Privacy Policy
Freedom of Information Act (FOIA)
About Us
Career Opportunities